Time;durP1;ratioP1;P1;durP2;ratioP2;P2;SDS_P1;SDS_P2;PMS_P1;PMS_P2;Temp;Humidity;BMP_temperature;BMP_pressure;BME280_temperature;BME280_humidity;BME280_pressure;Samples;Min_cycle;Max_cycle;Signal;HPM_P1;HPM_P2
2023/06/14 00:00:48;;;;;;;4.93;3.70;;;;;;;;;;5094445;28;20281;-77
2023/06/14 00:03:17;;;;;;;4.60;4.13;;;;;;;;;;5107590;28;20200;-77
2023/06/14 00:05:46;;;;;;;4.60;3.77;;;;;;;;;;5103363;28;20693;-77
2023/06/14 00:08:13;;;;;;;4.27;3.83;;;;;;;;;;5110838;28;20215;-77
2023/06/14 00:10:41;;;;;;;4.40;4.00;;;;;;;;;;5103936;28;20200;-77
2023/06/14 00:13:08;;;;;;;3.97;3.67;;;;;;;;;;5110555;28;20717;-77
2023/06/14 00:15:35;;;;;;;4.40;4.00;;;;;;;;;;5103897;28;20585;-77
2023/06/14 00:18:01;;;;;;;6.63;3.50;;;;;;;;;;5113732;28;20199;-77
2023/06/14 00:20:32;;;;;;;6.03;3.73;;;;;;;;;;5113842;28;20199;-77
2023/06/14 00:22:59;;;;;;;6.47;3.67;;;;;;;;;;5109514;28;20708;-77
2023/06/14 00:25:26;;;;;;;6.23;4.13;;;;;;;;;;5104977;28;20196;-77
2023/06/14 00:27:53;;;;;;;7.27;4.37;;;;;;;;;;5099597;28;20734;-77
2023/06/14 00:30:20;;;;;;;5.33;4.07;;;;;;;;;;5114252;28;20272;-77
2023/06/14 00:32:47;;;;;;;4.57;4.27;;;;;;;;;;5099892;28;20597;-77
2023/06/14 00:35:14;;;;;;;4.60;4.20;;;;;;;;;;5114079;28;20199;-77
2023/06/14 00:37:42;;;;;;;9.20;3.67;;;;;;;;;;5108379;28;20192;-77
2023/06/14 00:40:09;;;;;;;3.90;3.60;;;;;;;;;;5093623;28;20267;-77
2023/06/14 00:42:35;;;;;;;4.33;3.80;;;;;;;;;;5106531;28;20192;-77
2023/06/14 00:45:02;;;;;;;4.10;3.70;;;;;;;;;;5092729;28;20228;-76
2023/06/14 00:47:29;;;;;;;4.10;3.80;;;;;;;;;;5112425;28;20670;-77
2023/06/14 00:49:58;;;;;;;4.47;3.73;;;;;;;;;;5113609;28;20235;-77
2023/06/14 00:52:25;;;;;;;5.80;4.07;;;;;;;;;;5099722;28;20211;-77
2023/06/14 00:54:53;;;;;;;4.23;3.83;;;;;;;;;;5099743;28;20703;-76
2023/06/14 00:57:20;;;;;;;4.33;3.93;;;;;;;;;;5099851;28;20705;-77
2023/06/14 00:59:48;;;;;;;4.83;3.53;;;;;;;;;;5099076;28;20291;-77
2023/06/14 01:02:16;;;;;;;9.63;4.43;;;;;;;;;;5100528;28;20642;-77
2023/06/14 01:04:47;;;;;;;5.20;3.67;;;;;;;;;;5099369;28;20249;-77
2023/06/14 01:07:22;;;;;;;4.33;3.93;;;;;;;;;;5111635;28;20203;-77
2023/06/14 01:09:54;;;;;;;8.23;4.40;;;;;;;;;;5112688;28;20216;-77
2023/06/14 01:12:28;;;;;;;5.63;3.40;;;;;;;;;;5112566;28;20219;-77
2023/06/14 01:14:55;;;;;;;4.40;3.80;;;;;;;;;;5094588;28;20216;-77
2023/06/14 01:17:23;;;;;;;3.90;3.60;;;;;;;;;;5092613;28;20228;-77
2023/06/14 01:19:49;;;;;;;4.27;3.50;;;;;;;;;;5093167;28;20200;-77
2023/06/14 01:22:16;;;;;;;3.23;3.00;;;;;;;;;;5104727;28;20203;-77
2023/06/14 01:24:44;;;;;;;3.70;3.40;;;;;;;;;;5112388;28;20196;-77
2023/06/14 01:27:12;;;;;;;4.00;3.60;;;;;;;;;;5113058;28;20257;-77
2023/06/14 01:29:39;;;;;;;3.80;3.50;;;;;;;;;;5106895;28;20193;-77
2023/06/14 01:32:07;;;;;;;4.70;4.17;;;;;;;;;;5104969;28;20635;-77
2023/06/14 01:34:33;;;;;;;3.97;3.67;;;;;;;;;;5092938;28;20223;-77
2023/06/14 01:37:01;;;;;;;4.27;3.73;;;;;;;;;;5092325;28;20204;-77
2023/06/14 01:39:28;;;;;;;5.20;4.00;;;;;;;;;;5106348;28;20196;-77
2023/06/14 01:41:57;;;;;;;4.30;3.73;;;;;;;;;;5105686;28;20251;-77
2023/06/14 01:44:24;;;;;;;5.00;3.73;;;;;;;;;;5112326;28;20200;-77
2023/06/14 01:46:52;;;;;;;5.93;4.30;;;;;;;;;;5098106;28;20196;-77
2023/06/14 01:49:18;;;;;;;4.40;4.00;;;;;;;;;;5099969;28;20227;-77
2023/06/14 01:51:45;;;;;;;5.70;4.37;;;;;;;;;;5097318;28;20647;-77
2023/06/14 01:54:12;;;;;;;4.00;3.70;;;;;;;;;;5099951;28;20231;-76
2023/06/14 01:56:38;;;;;;;4.13;3.70;;;;;;;;;;5111012;28;20204;-77
2023/06/14 01:59:07;;;;;;;3.90;3.60;;;;;;;;;;5104178;28;20738;-77
2023/06/14 02:01:34;;;;;;;10.33;5.87;;;;;;;;;;5106737;28;20200;-77
2023/06/14 02:04:01;;;;;;;3.83;3.53;;;;;;;;;;5111963;28;20577;-77
2023/06/14 02:06:28;;;;;;;4.03;3.67;;;;;;;;;;5111804;28;20662;-76
2023/06/14 02:08:55;;;;;;;4.00;3.37;;;;;;;;;;5102995;28;20291;-77
2023/06/14 02:11:21;;;;;;;4.00;3.70;;;;;;;;;;5107352;28;20210;-77
2023/06/14 02:13:48;;;;;;;3.83;3.53;;;;;;;;;;5102512;28;20277;-77
2023/06/14 02:16:17;;;;;;;3.83;3.53;;;;;;;;;;5091809;28;20196;-76
2023/06/14 02:18:43;;;;;;;3.83;3.23;;;;;;;;;;5101313;28;20192;-76
2023/06/14 02:21:10;;;;;;;4.80;4.20;;;;;;;;;;5098635;28;20289;-76
2023/06/14 02:23:37;;;;;;;3.97;3.23;;;;;;;;;;5111152;28;20204;-77
2023/06/14 02:26:04;;;;;;;3.87;3.37;;;;;;;;;;5111432;28;20202;-76
2023/06/14 02:28:30;;;;;;;3.20;3.00;;;;;;;;;;5100622;28;20196;-76
2023/06/14 02:30:57;;;;;;;4.30;3.90;;;;;;;;;;5097626;28;20740;-76
2023/06/14 02:33:25;;;;;;;3.70;3.40;;;;;;;;;;5103391;28;20203;-76
2023/06/14 02:35:52;;;;;;;4.73;3.33;;;;;;;;;;5107400;28;20567;-76
2023/06/14 02:38:19;;;;;;;4.10;3.30;;;;;;;;;;5111018;28;20199;-77
2023/06/14 02:40:46;;;;;;;3.93;3.33;;;;;;;;;;5101234;28;20196;-76
2023/06/14 02:43:13;;;;;;;6.07;4.00;;;;;;;;;;5094765;28;20268;-76
2023/06/14 02:45:40;;;;;;;4.87;3.37;;;;;;;;;;5100542;28;20261;-76
2023/06/14 02:48:07;;;;;;;3.97;3.67;;;;;;;;;;5108466;28;20202;-76
2023/06/14 02:50:35;;;;;;;4.27;3.60;;;;;;;;;;5111150;28;20196;-76
2023/06/14 02:53:02;;;;;;;4.77;3.23;;;;;;;;;;5097064;28;20195;-76
2023/06/14 02:55:29;;;;;;;8.80;3.83;;;;;;;;;;5100062;28;20231;-76
2023/06/14 02:57:56;;;;;;;5.07;3.57;;;;;;;;;;5095668;28;20207;-76
2023/06/14 03:00:24;;;;;;;8.47;3.63;;;;;;;;;;5110018;28;20286;-76
2023/06/14 03:02:51;;;;;;;3.73;3.50;;;;;;;;;;5105825;28;20204;-77
2023/06/14 03:05:21;;;;;;;4.50;4.10;;;;;;;;;;5091277;28;20204;-76
2023/06/14 03:07:50;;;;;;;4.60;3.87;;;;;;;;;;5099150;28;20252;-76
2023/06/14 03:10:17;;;;;;;3.60;3.30;;;;;;;;;;5097515;28;20211;-76
2023/06/14 03:12:43;;;;;;;8.00;3.97;;;;;;;;;;5090718;28;20204;-76
2023/06/14 03:15:12;;;;;;;4.50;3.67;;;;;;;;;;5097388;28;20239;-76
2023/06/14 03:17:39;;;;;;;5.77;4.17;;;;;;;;;;5104460;28;20234;-76
2023/06/14 03:20:08;;;;;;;4.20;3.90;;;;;;;;;;5097708;28;20192;-76
2023/06/14 03:22:35;;;;;;;5.23;4.53;;;;;;;;;;5097291;28;20208;-76
2023/06/14 03:25:04;;;;;;;4.83;4.50;;;;;;;;;;5103418;28;20584;-76
2023/06/14 03:27:31;;;;;;;5.13;4.63;;;;;;;;;;5092256;28;20203;-76
2023/06/14 03:29:57;;;;;;;4.87;4.20;;;;;;;;;;5102428;28;20200;-76
2023/06/14 03:32:24;;;;;;;5.43;4.93;;;;;;;;;;5105558;28;20195;-77
2023/06/14 03:34:52;;;;;;;5.13;4.73;;;;;;;;;;5110783;28;20227;-76
2023/06/14 03:37:19;;;;;;;8.70;5.53;;;;;;;;;;5107239;28;20294;-75
2023/06/14 03:39:47;;;;;;;6.47;5.87;;;;;;;;;;5110495;28;20200;-75
2023/06/14 03:42:15;;;;;;;8.23;7.43;;;;;;;;;;5090112;28;20693;-75
2023/06/14 03:44:42;;;;;;;8.63;7.27;;;;;;;;;;5104350;28;20280;-75
2023/06/14 03:47:09;;;;;;;6.70;6.10;;;;;;;;;;5102596;28;20728;-75
2023/06/14 03:49:36;;;;;;;5.73;5.23;;;;;;;;;;5109356;28;20269;-75
2023/06/14 03:52:03;;;;;;;7.00;4.90;;;;;;;;;;5103104;28;20196;-76
2023/06/14 03:54:32;;;;;;;6.57;4.90;;;;;;;;;;5103230;28;20698;-77
2023/06/14 03:56:59;;;;;;;6.90;6.20;;;;;;;;;;5105109;28;20230;-77
2023/06/14 03:59:27;;;;;;;6.00;5.43;;;;;;;;;;5102177;28;20199;-77
2023/06/14 04:01:55;;;;;;;5.97;4.97;;;;;;;;;;5104846;28;20224;-77
2023/06/14 04:04:28;;;;;;;7.13;5.70;;;;;;;;;;5090313;28;20200;-76
2023/06/14 04:06:56;;;;;;;9.90;5.17;;;;;;;;;;5103288;28;20629;-77
2023/06/14 04:09:24;;;;;;;8.50;5.63;;;;;;;;;;5104026;28;20207;-77
2023/06/14 04:11:52;;;;;;;6.40;5.80;;;;;;;;;;5102604;28;20278;-76
2023/06/14 04:14:19;;;;;;;6.23;5.63;;;;;;;;;;5098485;28;20219;-76
2023/06/14 04:16:48;;;;;;;6.07;5.30;;;;;;;;;;5091355;28;20265;-76
2023/06/14 04:19:15;;;;;;;5.93;5.43;;;;;;;;;;5111051;28;20248;-76
2023/06/14 04:21:41;;;;;;;7.47;6.13;;;;;;;;;;5100015;28;20246;-77
2023/06/14 04:24:12;;;;;;;6.33;5.77;;;;;;;;;;5106122;28;20216;-77
2023/06/14 04:26:39;;;;;;;5.20;4.80;;;;;;;;;;5105994;28;20199;-77
2023/06/14 04:29:06;;;;;;;6.33;5.77;;;;;;;;;;5113753;28;20195;-77
2023/06/14 04:31:34;;;;;;;5.53;5.13;;;;;;;;;;5113867;28;20207;-77
2023/06/14 04:34:05;;;;;;;6.03;5.53;;;;;;;;;;5113902;28;20226;-77
2023/06/14 04:36:34;;;;;;;5.53;5.13;;;;;;;;;;5108255;28;20223;-77
2023/06/14 04:39:03;;;;;;;5.50;5.00;;;;;;;;;;5113859;28;20207;-77
2023/06/14 04:41:30;;;;;;;5.97;5.47;;;;;;;;;;5099823;28;20204;-77
2023/06/14 04:44:01;;;;;;;5.43;5.03;;;;;;;;;;5107070;28;20204;-78
2023/06/14 04:46:28;;;;;;;5.93;5.43;;;;;;;;;;5107047;28;20195;-77
2023/06/14 04:48:55;;;;;;;5.57;4.77;;;;;;;;;;5112401;28;20227;-77
2023/06/14 04:51:29;;;;;;;7.33;5.93;;;;;;;;;;5113612;28;20200;-77
2023/06/14 04:53:58;;;;;;;7.43;5.80;;;;;;;;;;5104339;28;20740;-78
2023/06/14 04:56:26;;;;;;;5.53;5.00;;;;;;;;;;5109355;28;20249;-77
2023/06/14 04:58:53;;;;;;;5.40;4.93;;;;;;;;;;5103717;28;20292;-77
2023/06/14 05:01:20;;;;;;;5.97;5.47;;;;;;;;;;5106365;28;20287;-77
2023/06/14 05:03:48;;;;;;;4.93;4.53;;;;;;;;;;5092697;28;20207;-77
2023/06/14 05:06:15;;;;;;;6.87;5.20;;;;;;;;;;5096452;28;20196;-77
2023/06/14 05:08:43;;;;;;;5.53;5.00;;;;;;;;;;5112920;28;20559;-77
2023/06/14 05:11:10;;;;;;;5.10;4.70;;;;;;;;;;5099208;28;20621;-77
2023/06/14 05:13:36;;;;;;;5.80;5.00;;;;;;;;;;5112540;28;20701;-77
2023/06/14 05:16:03;;;;;;;5.23;4.73;;;;;;;;;;5112795;28;20708;-78
2023/06/14 05:18:31;;;;;;;6.87;4.67;;;;;;;;;;5112705;28;20204;-78
2023/06/14 05:20:57;;;;;;;4.73;4.30;;;;;;;;;;5099135;28;20739;-77
2023/06/14 05:23:24;;;;;;;6.20;4.03;;;;;;;;;;5112809;28;20276;-77
2023/06/14 05:25:52;;;;;;;4.90;4.50;;;;;;;;;;5099293;28;20678;-77
2023/06/14 05:28:19;;;;;;;5.27;3.87;;;;;;;;;;5104686;28;20213;-77
2023/06/14 05:30:45;;;;;;;3.77;3.30;;;;;;;;;;5105697;28;20195;-77
2023/06/14 05:33:12;;;;;;;4.40;4.00;;;;;;;;;;5100494;28;20639;-77
2023/06/14 05:35:39;;;;;;;7.63;4.90;;;;;;;;;;5098686;28;20231;-77
2023/06/14 05:38:07;;;;;;;8.97;4.20;;;;;;;;;;5112243;28;20203;-77
2023/06/14 05:40:34;;;;;;;4.17;3.87;;;;;;;;;;5112421;28;20693;-77
2023/06/14 05:43:02;;;;;;;4.77;3.90;;;;;;;;;;5103623;28;20603;-78
2023/06/14 05:45:29;;;;;;;6.03;4.13;;;;;;;;;;5107967;28;20742;-78
2023/06/14 05:47:55;;;;;;;5.20;4.13;;;;;;;;;;5112306;28;20252;-77
2023/06/14 05:50:22;;;;;;;4.50;4.00;;;;;;;;;;5098960;28;20228;-77
2023/06/14 05:52:49;;;;;;;5.20;4.70;;;;;;;;;;5111971;28;20199;-77
2023/06/14 05:55:17;;;;;;;4.77;4.37;;;;;;;;;;5112056;28;20224;-77
2023/06/14 05:57:43;;;;;;;4.80;4.33;;;;;;;;;;5102055;28;20227;-77
2023/06/14 06:00:14;;;;;;;4.73;4.07;;;;;;;;;;5092185;28;20273;-77
2023/06/14 06:02:42;;;;;;;5.10;4.47;;;;;;;;;;5102635;28;20197;-77
2023/06/14 06:05:09;;;;;;;4.27;3.97;;;;;;;;;;5098560;28;20199;-77
2023/06/14 06:07:36;;;;;;;4.87;4.47;;;;;;;;;;5100655;28;20287;-77
2023/06/14 06:10:03;;;;;;;4.77;4.37;;;;;;;;;;5105461;28;20274;-77
2023/06/14 06:12:30;;;;;;;4.83;4.03;;;;;;;;;;5103049;28;20208;-78
2023/06/14 06:14:57;;;;;;;3.73;3.43;;;;;;;;;;5092940;28;20220;-77
2023/06/14 06:17:26;;;;;;;4.63;4.20;;;;;;;;;;5103858;28;20199;-77
2023/06/14 06:19:52;;;;;;;5.47;4.40;;;;;;;;;;5098283;28;20199;-77
2023/06/14 06:22:19;;;;;;;5.07;3.93;;;;;;;;;;5099269;28;20212;-78
2023/06/14 06:24:46;;;;;;;6.10;3.87;;;;;;;;;;5097144;28;20200;-78
2023/06/14 06:27:13;;;;;;;4.73;3.93;;;;;;;;;;5099520;28;20207;-77
2023/06/14 06:29:40;;;;;;;5.43;4.67;;;;;;;;;;5096951;28;20211;-77
2023/06/14 06:32:07;;;;;;;4.10;3.80;;;;;;;;;;5099465;28;20212;-77
2023/06/14 06:34:37;;;;;;;3.70;3.40;;;;;;;;;;5097096;28;20207;-77
2023/06/14 06:37:04;;;;;;;4.13;3.83;;;;;;;;;;5111455;28;20196;-78
2023/06/14 06:39:31;;;;;;;5.83;4.47;;;;;;;;;;5091254;28;20204;-78
2023/06/14 06:41:57;;;;;;;4.23;3.83;;;;;;;;;;5090737;28;20258;-78
2023/06/14 06:44:24;;;;;;;5.33;3.63;;;;;;;;;;5091092;28;20200;-77
2023/06/14 06:46:51;;;;;;;5.33;4.93;;;;;;;;;;5104315;28;20195;-77
2023/06/14 06:49:18;;;;;;;4.30;3.90;;;;;;;;;;5098810;28;20696;-78
2023/06/14 06:52:00;;;;;;;4.60;3.27;;;;;;;;;;5097244;28;20234;-77
2023/06/14 06:54:26;;;;;;;3.53;3.23;;;;;;;;;;5111357;28;20651;-77
2023/06/14 06:56:53;;;;;;;4.97;3.23;;;;;;;;;;5097358;28;20222;-77
2023/06/14 06:59:20;;;;;;;5.07;3.73;;;;;;;;;;5101406;28;20204;-77
2023/06/14 07:01:47;;;;;;;3.97;3.50;;;;;;;;;;5104495;28;20196;-77
2023/06/14 07:04:15;;;;;;;7.57;3.50;;;;;;;;;;5101030;28;20253;-77
2023/06/14 07:06:42;;;;;;;4.77;3.83;;;;;;;;;;5107191;28;20200;-77
2023/06/14 07:09:12;;;;;;;3.73;3.50;;;;;;;;;;5090699;28;20202;-78
2023/06/14 07:11:39;;;;;;;4.10;3.80;;;;;;;;;;5108691;28;20270;-77
2023/06/14 07:14:06;;;;;;;4.33;3.93;;;;;;;;;;5099779;28;20641;-77
2023/06/14 07:16:33;;;;;;;5.73;4.00;;;;;;;;;;5095294;28;20219;-77
2023/06/14 07:19:00;;;;;;;4.70;4.00;;;;;;;;;;5099121;28;20212;-78
2023/06/14 07:21:27;;;;;;;4.23;3.93;;;;;;;;;;5090565;28;20564;-77
2023/06/14 07:23:54;;;;;;;4.83;4.33;;;;;;;;;;5090972;28;20204;-77
2023/06/14 07:26:22;;;;;;;4.47;4.07;;;;;;;;;;5104029;28;20736;-77
2023/06/14 07:28:49;;;;;;;5.37;4.70;;;;;;;;;;5102947;28;20208;-77
2023/06/14 07:31:16;;;;;;;5.27;4.17;;;;;;;;;;5091265;28;20293;-77
2023/06/14 07:33:44;;;;;;;4.10;3.80;;;;;;;;;;5103657;28;20231;-77
2023/06/14 07:36:10;;;;;;;4.10;3.33;;;;;;;;;;5090589;28;20227;-77
2023/06/14 07:38:37;;;;;;;9.67;4.77;;;;;;;;;;5090644;28;20211;-77
2023/06/14 07:41:05;;;;;;;4.60;4.20;;;;;;;;;;5097823;28;20628;-77
2023/06/14 07:43:34;;;;;;;4.40;4.10;;;;;;;;;;5097004;28;20227;-77
2023/06/14 07:46:01;;;;;;;5.90;4.87;;;;;;;;;;5110814;28;20191;-78
2023/06/14 07:48:27;;;;;;;5.27;4.70;;;;;;;;;;5097078;28;20253;-78
2023/06/14 07:50:54;;;;;;;5.77;5.23;;;;;;;;;;5103172;28;20200;-78
2023/06/14 07:53:21;;;;;;;6.77;5.57;;;;;;;;;;5091004;28;20686;-78
2023/06/14 07:55:48;;;;;;;6.57;5.03;;;;;;;;;;5094298;28;20241;-78
2023/06/14 07:58:15;;;;;;;5.23;4.73;;;;;;;;;;5107370;28;20199;-78
2023/06/14 08:00:43;;;;;;;7.37;5.90;;;;;;;;;;5094391;28;20259;-78
2023/06/14 08:03:10;;;;;;;7.87;6.03;;;;;;;;;;5107549;28;20233;-78
2023/06/14 08:05:36;;;;;;;5.67;5.17;;;;;;;;;;5103433;28;20218;-78
2023/06/14 08:08:03;;;;;;;7.77;5.80;;;;;;;;;;5113675;28;20200;-78
2023/06/14 08:10:30;;;;;;;6.03;5.50;;;;;;;;;;5114744;28;20207;-79
2023/06/14 08:12:57;;;;;;;5.20;4.73;;;;;;;;;;5111819;28;20195;-76
2023/06/14 08:15:24;;;;;;;7.93;5.87;;;;;;;;;;5094958;28;20691;-76
2023/06/14 08:17:52;;;;;;;6.33;5.60;;;;;;;;;;5093486;28;20200;-76
2023/06/14 08:20:18;;;;;;;6.13;5.53;;;;;;;;;;5103577;28;20207;-76
2023/06/14 08:22:47;;;;;;;7.67;5.53;;;;;;;;;;5113660;28;20202;-76
2023/06/14 08:25:14;;;;;;;8.37;7.43;;;;;;;;;;5114195;28;20196;-76
2023/06/14 08:27:41;;;;;;;8.10;7.30;;;;;;;;;;5113634;28;20192;-76
2023/06/14 08:30:09;;;;;;;6.30;5.70;;;;;;;;;;5113859;28;20678;-76
2023/06/14 08:32:36;;;;;;;8.83;5.63;;;;;;;;;;5113822;28;20199;-76
2023/06/14 08:35:07;;;;;;;7.03;5.23;;;;;;;;;;5103575;28;20257;-76
2023/06/14 08:37:34;;;;;;;4.87;4.47;;;;;;;;;;5093380;28;20204;-76
2023/06/14 08:40:01;;;;;;;8.37;5.50;;;;;;;;;;5104598;28;20295;-76
2023/06/14 08:42:28;;;;;;;5.03;4.57;;;;;;;;;;5095297;28;20200;-77
2023/06/14 08:44:54;;;;;;;5.53;4.83;;;;;;;;;;5105299;28;20199;-76
2023/06/14 08:47:21;;;;;;;6.53;4.87;;;;;;;;;;5099679;28;20614;-76
2023/06/14 08:49:49;;;;;;;6.23;4.70;;;;;;;;;;5113104;28;20593;-76
2023/06/14 08:52:20;;;;;;;4.47;4.10;;;;;;;;;;5094514;28;20246;-76
2023/06/14 08:54:48;;;;;;;6.77;6.07;;;;;;;;;;5105961;28;20689;-76
2023/06/14 08:57:16;;;;;;;7.30;4.97;;;;;;;;;;5093488;28;20335;-75
2023/06/14 08:59:48;;;;;;;7.40;6.20;;;;;;;;;;5106350;28;20677;-76
2023/06/14 09:02:17;;;;;;;6.57;5.97;;;;;;;;;;5093267;28;20257;-76
2023/06/14 09:04:44;;;;;;;5.60;5.10;;;;;;;;;;5106459;28;20290;-76
2023/06/14 09:07:12;;;;;;;4.90;4.50;;;;;;;;;;5100739;28;20669;-76
2023/06/14 09:09:41;;;;;;;5.80;4.53;;;;;;;;;;5099590;28;20204;-76
2023/06/14 09:12:10;;;;;;;6.07;5.60;;;;;;;;;;5113387;28;20208;-76
2023/06/14 09:14:40;;;;;;;6.83;5.70;;;;;;;;;;5097009;28;20279;-76
2023/06/14 09:17:07;;;;;;;6.13;5.30;;;;;;;;;;5102591;28;20215;-76
2023/06/14 09:19:35;;;;;;;7.63;5.53;;;;;;;;;;5099337;28;20214;-76
2023/06/14 09:22:02;;;;;;;6.00;5.50;;;;;;;;;;5102659;28;20758;-77
2023/06/14 09:24:29;;;;;;;5.93;5.33;;;;;;;;;;5107063;28;20201;-76
2023/06/14 09:26:57;;;;;;;5.70;5.20;;;;;;;;;;5102886;28;20207;-76
2023/06/14 09:29:26;;;;;;;5.97;4.60;;;;;;;;;;5098862;28;20659;-76
2023/06/14 09:31:53;;;;;;;5.57;5.07;;;;;;;;;;5102041;28;20204;-76
2023/06/14 09:34:23;;;;;;;6.53;5.80;;;;;;;;;;5092569;28;20200;-76
2023/06/14 09:36:50;;;;;;;6.60;5.20;;;;;;;;;;5092066;28;20226;-76
2023/06/14 09:39:18;;;;;;;6.70;5.43;;;;;;;;;;5110563;28;20199;-76
2023/06/14 09:41:45;;;;;;;6.30;5.10;;;;;;;;;;5112541;28;20204;-76
2023/06/14 09:44:13;;;;;;;7.37;4.93;;;;;;;;;;5106936;28;20768;-76
2023/06/14 09:46:40;;;;;;;6.23;5.63;;;;;;;;;;5092446;28;20200;-76
2023/06/14 09:49:07;;;;;;;5.57;5.07;;;;;;;;;;5105814;28;20224;-76
2023/06/14 09:51:34;;;;;;;5.40;4.90;;;;;;;;;;5104871;28;20207;-76
2023/06/14 09:54:04;;;;;;;7.23;4.97;;;;;;;;;;5092449;28;20230;-76
2023/06/14 09:56:35;;;;;;;6.57;5.57;;;;;;;;;;5105708;28;20230;-76
2023/06/14 09:59:06;;;;;;;5.97;5.43;;;;;;;;;;5099735;28;20195;-76
2023/06/14 10:01:35;;;;;;;10.33;5.67;;;;;;;;;;5110406;28;20203;-77
2023/06/14 10:04:04;;;;;;;7.80;5.37;;;;;;;;;;5100532;28;20203;-75
2023/06/14 10:06:31;;;;;;;9.27;5.00;;;;;;;;;;5109721;28;20207;-76
2023/06/14 10:09:01;;;;;;;10.97;5.37;;;;;;;;;;5091838;28;20188;-76
2023/06/14 10:11:28;;;;;;;10.30;6.27;;;;;;;;;;5108086;28;20699;-76
2023/06/14 10:13:56;;;;;;;6.33;5.40;;;;;;;;;;5101624;28;20625;-76
2023/06/14 10:16:31;;;;;;;5.13;4.67;;;;;;;;;;5094588;28;20219;-76
2023/06/14 10:19:07;;;;;;;7.73;5.10;;;;;;;;;;5100149;28;20242;-76
2023/06/14 10:21:39;;;;;;;5.63;4.97;;;;;;;;;;5110960;28;20203;-76
2023/06/14 10:24:08;;;;;;;5.37;4.87;;;;;;;;;;5098498;28;20204;-76
2023/06/14 10:26:35;;;;;;;4.97;4.57;;;;;;;;;;5098343;28;20256;-76
2023/06/14 10:29:08;;;;;;;5.70;5.20;;;;;;;;;;5098232;28;20266;-76
2023/06/14 10:31:42;;;;;;;6.57;4.77;;;;;;;;;;5103403;28;20624;-76
2023/06/14 10:34:10;;;;;;;5.03;4.43;;;;;;;;;;5104932;28;20276;-76
2023/06/14 10:36:37;;;;;;;5.10;4.70;;;;;;;;;;5091690;28;20220;-76
2023/06/14 10:39:08;;;;;;;6.57;6.07;;;;;;;;;;5108522;28;20287;-77
2023/06/14 10:41:37;;;;;;;5.43;4.93;;;;;;;;;;5100047;28;20675;-76
2023/06/14 10:44:32;;;;;;;5.03;4.63;;;;;;;;;;5109306;28;20693;-75
2023/06/14 10:47:00;;;;;;;5.67;5.07;;;;;;;;;;5097447;28;20599;-76
2023/06/14 10:49:42;;;;;;;4.90;4.23;;;;;;;;;;5102424;28;20224;-75
2023/06/14 10:52:16;;;;;;;5.70;5.10;;;;;;;;;;5109209;28;20272;-76
2023/06/14 10:54:57;;;;;;;7.03;4.90;;;;;;;;;;5111560;28;20645;-76
2023/06/14 10:57:23;;;;;;;5.27;4.33;;;;;;;;;;5110955;28;20219;-76
2023/06/14 10:59:50;;;;;;;6.13;4.60;;;;;;;;;;5097513;28;20629;-76
2023/06/14 11:02:37;;;;;;;4.83;4.20;;;;;;;;;;5102829;28;20211;-75
2023/06/14 11:05:10;;;;;;;5.80;4.77;;;;;;;;;;5104724;28;20591;-75
2023/06/14 11:07:48;;;;;;;8.33;4.60;;;;;;;;;;5103378;28;20206;-76
2023/06/14 11:10:26;;;;;;;5.43;4.93;;;;;;;;;;5111085;28;20742;-76
2023/06/14 11:12:55;;;;;;;4.50;4.20;;;;;;;;;;5108312;28;20214;-75
2023/06/14 11:15:29;;;;;;;6.33;4.50;;;;;;;;;;5090846;28;20258;-76
2023/06/14 11:17:57;;;;;;;7.57;4.63;;;;;;;;;;5091028;28;20232;-75
2023/06/14 11:20:27;;;;;;;6.37;4.67;;;;;;;;;;5101218;28;20226;-75
2023/06/14 11:22:55;;;;;;;5.37;4.87;;;;;;;;;;5107156;28;20200;-75
2023/06/14 11:25:22;;;;;;;4.90;4.50;;;;;;;;;;5101526;28;20199;-75
2023/06/14 11:27:50;;;;;;;5.47;4.70;;;;;;;;;;5106849;28;20192;-75
2023/06/14 11:30:17;;;;;;;5.70;5.00;;;;;;;;;;5105769;28;20234;-75
2023/06/14 11:32:46;;;;;;;6.60;4.43;;;;;;;;;;5096866;28;20200;-75
2023/06/14 11:35:13;;;;;;;6.60;4.40;;;;;;;;;;5095127;28;20200;-75
2023/06/14 11:37:42;;;;;;;4.50;4.10;;;;;;;;;;5107989;28;20228;-75
2023/06/14 11:40:09;;;;;;;4.33;4.03;;;;;;;;;;5107595;28;20227;-76
2023/06/14 11:42:37;;;;;;;4.57;3.93;;;;;;;;;;5095116;28;20192;-76
2023/06/14 11:45:05;;;;;;;3.57;3.37;;;;;;;;;;5107789;28;20701;-75
2023/06/14 11:47:33;;;;;;;5.50;4.07;;;;;;;;;;5094870;28;20287;-75
2023/06/14 11:50:02;;;;;;;5.13;4.00;;;;;;;;;;5107480;28;20315;-75
2023/06/14 11:52:29;;;;;;;4.30;4.00;;;;;;;;;;5101170;28;20253;-75
2023/06/14 11:54:58;;;;;;;5.77;3.50;;;;;;;;;;5100750;28;20207;-75
2023/06/14 11:57:25;;;;;;;6.53;4.33;;;;;;;;;;5114770;28;20368;-75
2023/06/14 11:59:52;;;;;;;5.47;3.40;;;;;;;;;;5100299;28;20655;-75
2023/06/14 12:02:20;;;;;;;3.37;3.17;;;;;;;;;;5114364;28;20199;-75
2023/06/14 12:04:48;;;;;;;4.17;3.87;;;;;;;;;;5113196;28;20670;-75
2023/06/14 12:07:17;;;;;;;4.63;4.13;;;;;;;;;;5101998;28;20208;-76
2023/06/14 12:10:07;;;;;;;10.30;3.43;;;;;;;;;;5109642;28;20245;-75
2023/06/14 12:12:36;;;;;;;3.83;3.50;;;;;;;;;;5114432;28;20287;-75
2023/06/14 12:15:06;;;;;;;5.73;4.07;;;;;;;;;;5108837;28;20201;-75
2023/06/14 12:17:38;;;;;;;4.30;3.70;;;;;;;;;;5106856;28;20258;-75
2023/06/14 12:20:10;;;;;;;4.93;3.77;;;;;;;;;;5114334;28;20241;-75
2023/06/14 12:22:37;;;;;;;3.90;3.53;;;;;;;;;;5114104;28;20228;-75
2023/06/14 12:25:05;;;;;;;4.07;3.77;;;;;;;;;;5106064;28;20659;-75
2023/06/14 12:27:33;;;;;;;4.17;3.87;;;;;;;;;;5095323;28;20200;-75
2023/06/14 12:30:02;;;;;;;4.43;4.03;;;;;;;;;;5114090;28;20199;-75
2023/06/14 12:32:29;;;;;;;5.30;4.10;;;;;;;;;;5099772;28;20679;-75
2023/06/14 12:34:56;;;;;;;3.73;3.43;;;;;;;;;;5104290;28;20201;-75
2023/06/14 12:37:24;;;;;;;4.20;3.90;;;;;;;;;;5096466;28;20235;-75
2023/06/14 12:39:51;;;;;;;3.93;3.63;;;;;;;;;;5102628;28;20202;-75
2023/06/14 12:42:18;;;;;;;4.73;3.70;;;;;;;;;;5106868;28;20249;-75
2023/06/14 12:44:45;;;;;;;4.13;3.73;;;;;;;;;;5103857;28;20642;-75
2023/06/14 12:47:13;;;;;;;3.93;3.63;;;;;;;;;;5099631;28;20207;-75
2023/06/14 12:49:41;;;;;;;3.80;3.50;;;;;;;;;;5113764;28;20326;-75
2023/06/14 12:52:09;;;;;;;4.00;3.70;;;;;;;;;;5100093;28;20282;-75
2023/06/14 12:54:36;;;;;;;4.00;3.43;;;;;;;;;;5102953;28;20208;-75
2023/06/14 12:57:03;;;;;;;4.70;3.87;;;;;;;;;;5106904;28;20255;-75
2023/06/14 12:59:33;;;;;;;5.40;3.47;;;;;;;;;;5093223;28;20207;-75
2023/06/14 13:02:01;;;;;;;19.40;5.57;;;;;;;;;;5106591;28;20228;-75
2023/06/14 13:04:32;;;;;;;9.27;4.73;;;;;;;;;;5092564;28;20204;-75
2023/06/14 13:06:59;;;;;;;4.30;3.90;;;;;;;;;;5112383;28;20199;-75
2023/06/14 13:09:26;;;;;;;4.97;4.53;;;;;;;;;;5113520;28;20619;-75
2023/06/14 13:11:53;;;;;;;3.93;3.63;;;;;;;;;;5106286;28;20196;-75
2023/06/14 13:14:20;;;;;;;5.80;3.80;;;;;;;;;;5106771;28;20199;-75
2023/06/14 13:16:47;;;;;;;4.50;3.97;;;;;;;;;;5099182;28;20196;-75
2023/06/14 13:19:13;;;;;;;4.23;3.83;;;;;;;;;;5099417;28;20204;-75
2023/06/14 13:21:41;;;;;;;4.77;4.27;;;;;;;;;;5093024;28;20246;-76
2023/06/14 13:24:08;;;;;;;5.83;4.20;;;;;;;;;;5106423;28;20206;-75
2023/06/14 13:26:35;;;;;;;4.10;3.63;;;;;;;;;;5100061;28;20758;-75
2023/06/14 13:29:02;;;;;;;4.03;3.70;;;;;;;;;;5112313;28;20690;-75
2023/06/14 13:31:28;;;;;;;4.70;4.00;;;;;;;;;;5113049;28;20199;-75
2023/06/14 13:33:55;;;;;;;4.60;4.10;;;;;;;;;;5098982;28;20204;-75
2023/06/14 13:36:22;;;;;;;4.33;4.03;;;;;;;;;;5105001;28;20205;-75
2023/06/14 13:38:51;;;;;;;4.70;4.30;;;;;;;;;;5093382;28;20220;-75
2023/06/14 13:41:18;;;;;;;4.53;4.07;;;;;;;;;;5104153;28;20283;-77
2023/06/14 13:43:45;;;;;;;3.93;3.63;;;;;;;;;;5107790;28;20260;-75
2023/06/14 13:46:11;;;;;;;6.83;3.67;;;;;;;;;;5103609;28;20682;-75
2023/06/14 13:48:38;;;;;;;4.30;3.90;;;;;;;;;;5105281;28;20219;-75
2023/06/14 13:51:05;;;;;;;3.53;3.23;;;;;;;;;;5101137;28;20195;-75
2023/06/14 13:53:33;;;;;;;3.50;3.30;;;;;;;;;;5110324;28;20211;-75
2023/06/14 13:56:01;;;;;;;5.00;3.40;;;;;;;;;;5091791;28;20211;-76
2023/06/14 13:58:28;;;;;;;4.03;3.73;;;;;;;;;;5091930;28;20220;-75
2023/06/14 14:00:54;;;;;;;3.90;3.60;;;;;;;;;;5091935;28;20232;-75
2023/06/14 14:03:21;;;;;;;4.30;3.87;;;;;;;;;;5105321;28;20253;-76
2023/06/14 14:05:48;;;;;;;4.63;3.43;;;;;;;;;;5092058;28;20261;-75
2023/06/14 14:08:15;;;;;;;2.87;2.67;;;;;;;;;;5105032;28;20204;-76
2023/06/14 14:10:41;;;;;;;6.30;3.37;;;;;;;;;;5091417;28;20623;-76
2023/06/14 14:13:10;;;;;;;4.30;3.50;;;;;;;;;;5092012;28;20196;-75
2023/06/14 14:15:39;;;;;;;3.97;3.67;;;;;;;;;;5091758;28;20204;-75
2023/06/14 14:18:06;;;;;;;4.23;3.47;;;;;;;;;;5091393;28;20220;-75
2023/06/14 14:20:33;;;;;;;3.37;3.07;;;;;;;;;;5102802;28;20195;-76
2023/06/14 14:23:00;;;;;;;3.80;3.50;;;;;;;;;;5097889;28;20196;-76
2023/06/14 14:25:27;;;;;;;3.70;3.40;;;;;;;;;;5111734;28;20220;-75
2023/06/14 14:27:54;;;;;;;3.63;3.03;;;;;;;;;;5097352;28;20218;-75
2023/06/14 14:30:23;;;;;;;3.87;3.30;;;;;;;;;;5112129;28;20207;-76
2023/06/14 14:32:50;;;;;;;3.10;2.80;;;;;;;;;;5106067;28;20197;-76
2023/06/14 14:35:17;;;;;;;3.70;3.40;;;;;;;;;;5103819;28;20203;-76
2023/06/14 14:37:44;;;;;;;3.33;3.13;;;;;;;;;;5111465;28;20234;-76
2023/06/14 14:40:12;;;;;;;3.53;3.20;;;;;;;;;;5111109;28;20260;-77
2023/06/14 14:42:38;;;;;;;3.60;3.30;;;;;;;;;;5104979;28;20215;-76
2023/06/14 14:45:07;;;;;;;4.17;3.87;;;;;;;;;;5104137;28;20754;-75
2023/06/14 14:47:35;;;;;;;3.43;3.20;;;;;;;;;;5105008;28;20212;-75